sensor_id;sensor_type;location;lat;lon;timestamp;pressure;altitude;pressure_sealevel;temperature;humidity
64362;BME280;50685;53.346;-6.296;2022-07-05T00:00:04;102263.72;;;13.96;66.44
64362;BME280;50685;53.346;-6.296;2022-07-05T00:02:30;102279.72;;;14.02;66.69
64362;BME280;50685;53.346;-6.296;2022-07-05T00:04:56;102272.63;;;14.03;67.04
64362;BME280;50685;53.346;-6.296;2022-07-05T00:07:21;102242.44;;;13.82;66.88
64362;BME280;50685;53.346;-6.296;2022-07-05T00:09:52;102275.25;;;14.06;66.90
64362;BME280;50685;53.346;-6.296;2022-07-05T00:12:19;102254.88;;;13.89;67.02
64362;BME280;50685;53.346;-6.296;2022-07-05T00:14:46;102242.44;;;13.82;67.10
64362;BME280;50685;53.346;-6.296;2022-07-05T00:17:12;102249.50;;;13.92;67.22
64362;BME280;50685;53.346;-6.296;2022-07-05T00:19:38;102245.09;;;13.82;67.17
64362;BME280;50685;53.346;-6.296;2022-07-05T00:22:04;102253.97;;;13.92;67.17
64362;BME280;50685;53.346;-6.296;2022-07-05T00:24:30;102257.53;;;13.94;67.09
64362;BME280;50685;53.346;-6.296;2022-07-05T00:26:56;102238.91;;;13.77;67.39
64362;BME280;50685;53.346;-6.296;2022-07-05T00:29:21;102274.41;;;13.97;67.48
64362;BME280;50685;53.346;-6.296;2022-07-05T00:31:47;102243.34;;;13.78;67.72
64362;BME280;50685;53.346;-6.296;2022-07-05T00:34:13;102272.66;;;13.89;67.76
64362;BME280;50685;53.346;-6.296;2022-07-05T00:36:39;102256.66;;;13.82;67.37
64362;BME280;50685;53.346;-6.296;2022-07-05T00:39:05;102282.41;;;13.94;67.92
64362;BME280;50685;53.346;-6.296;2022-07-05T00:41:31;102262.91;;;13.83;67.83
64362;BME280;50685;53.346;-6.296;2022-07-05T00:44:02;102251.34;;;13.81;67.88
64362;BME280;50685;53.346;-6.296;2022-07-05T00:46:28;102247.78;;;13.76;67.87
64362;BME280;50685;53.346;-6.296;2022-07-05T00:48:54;102223.84;;;13.68;67.90
64362;BME280;50685;53.346;-6.296;2022-07-05T00:51:21;102240.69;;;13.78;67.88
64362;BME280;50685;53.346;-6.296;2022-07-05T00:53:48;102246.00;;;13.79;68.05
64362;BME280;50685;53.346;-6.296;2022-07-05T00:56:15;102254.91;;;13.83;68.20
64362;BME280;50685;53.346;-6.296;2022-07-05T00:58:40;102240.69;;;13.70;68.32
64362;BME280;50685;53.346;-6.296;2022-07-05T01:01:08;102246.91;;;13.72;68.41
64362;BME280;50685;53.346;-6.296;2022-07-05T01:03:35;102242.50;;;13.65;68.77
64362;BME280;50685;53.346;-6.296;2022-07-05T01:06:01;102242.50;;;13.63;68.70
64362;BME280;50685;53.346;-6.296;2022-07-05T01:08:27;102252.28;;;13.64;69.27
64362;BME280;50685;53.346;-6.296;2022-07-05T01:10:57;102243.41;;;13.61;69.34
64362;BME280;50685;53.346;-6.296;2022-07-05T01:13:22;102250.50;;;13.68;69.38
64362;BME280;50685;53.346;-6.296;2022-07-05T01:15:48;102248.72;;;13.65;69.02
64362;BME280;50685;53.346;-6.296;2022-07-05T01:18:14;102246.94;;;13.69;69.29
64362;BME280;50685;53.346;-6.296;2022-07-05T01:20:41;102226.50;;;13.65;69.52
64362;BME280;50685;53.346;-6.296;2022-07-05T01:23:07;102242.47;;;13.71;70.08
64362;BME280;50685;53.346;-6.296;2022-07-05T01:25:33;102256.66;;;13.82;70.18
64362;BME280;50685;53.346;-6.296;2022-07-05T01:27:59;102244.28;;;13.63;71.50
64362;BME280;50685;53.346;-6.296;2022-07-05T01:30:25;102227.41;;;13.56;71.80
64362;BME280;50685;53.346;-6.296;2022-07-05T01:32:51;102228.31;;;13.44;73.09
64362;BME280;50685;53.346;-6.296;2022-07-05T01:35:18;102235.41;;;13.30;73.79
64362;BME280;50685;53.346;-6.296;2022-07-05T01:37:49;102253.19;;;13.42;74.55
64362;BME280;50685;53.346;-6.296;2022-07-05T01:40:15;102231.84;;;13.28;74.66
64362;BME280;50685;53.346;-6.296;2022-07-05T01:42:41;102249.59;;;13.37;74.59
64362;BME280;50685;53.346;-6.296;2022-07-05T01:45:06;102261.19;;;13.40;74.78
64362;BME280;50685;53.346;-6.296;2022-07-05T01:47:36;102234.50;;;13.34;74.85
64362;BME280;50685;53.346;-6.296;2022-07-05T01:50:04;102241.63;;;13.35;75.00
64362;BME280;50685;53.346;-6.296;2022-07-05T01:52:32;102224.75;;;13.33;75.02
64362;BME280;50685;53.346;-6.296;2022-07-05T01:54:59;102247.88;;;13.40;75.14
64362;BME280;50685;53.346;-6.296;2022-07-05T01:57:26;102230.97;;;13.35;75.08
64362;BME280;50685;53.346;-6.296;2022-07-05T01:59:51;102225.66;;;13.33;75.31
64362;BME280;50685;53.346;-6.296;2022-07-05T02:02:17;102237.22;;;13.40;75.60
64362;BME280;50685;53.346;-6.296;2022-07-05T02:04:42;102222.97;;;13.37;75.54
64362;BME280;50685;53.346;-6.296;2022-07-05T02:07:08;102229.19;;;13.37;75.56
64362;BME280;50685;53.346;-6.296;2022-07-05T02:09:34;102229.19;;;13.37;76.01
64362;BME280;50685;53.346;-6.296;2022-07-05T02:12:01;102235.44;;;13.42;76.35
64362;BME280;50685;53.346;-6.296;2022-07-05T02:14:27;102222.09;;;13.36;76.44
64362;BME280;50685;53.346;-6.296;2022-07-05T02:16:53;102245.19;;;13.51;76.50
64362;BME280;50685;53.346;-6.296;2022-07-05T02:19:18;102208.75;;;13.36;76.31
64362;BME280;50685;53.346;-6.296;2022-07-05T02:21:44;102215.88;;;13.40;75.99
64362;BME280;50685;53.346;-6.296;2022-07-05T02:24:09;102227.44;;;13.42;76.05
64362;BME280;50685;53.346;-6.296;2022-07-05T02:26:35;102199.88;;;13.34;76.31
64362;BME280;50685;53.346;-6.296;2022-07-05T02:29:02;102215.88;;;13.42;76.78
64362;BME280;50685;53.346;-6.296;2022-07-05T02:31:28;102208.78;;;13.38;76.95
64362;BME280;50685;53.346;-6.296;2022-07-05T02:33:53;102199.88;;;13.29;77.17
64362;BME280;50685;53.346;-6.296;2022-07-05T02:36:19;102212.31;;;13.30;77.42
64362;BME280;50685;53.346;-6.296;2022-07-05T02:38:44;102218.53;;;13.37;77.56
64362;BME280;50685;53.346;-6.296;2022-07-05T02:41:11;102222.97;;;13.47;77.46
64362;BME280;50685;53.346;-6.296;2022-07-05T02:43:37;102226.53;;;13.40;78.20
64362;BME280;50685;53.346;-6.296;2022-07-05T02:46:04;102191.88;;;13.28;78.17
64362;BME280;50685;53.346;-6.296;2022-07-05T02:48:31;102211.44;;;13.36;78.30
64362;BME280;50685;53.346;-6.296;2022-07-05T02:50:57;102184.78;;;13.30;78.05
64362;BME280;50685;53.346;-6.296;2022-07-05T02:53:22;102201.66;;;13.29;78.48
64362;BME280;50685;53.346;-6.296;2022-07-05T02:55:48;102206.09;;;13.33;78.65
64362;BME280;50685;53.346;-6.296;2022-07-05T02:58:14;102207.88;;;13.37;78.58
64362;BME280;50685;53.346;-6.296;2022-07-05T03:00:39;102198.13;;;13.21;78.86
64362;BME280;50685;53.346;-6.296;2022-07-05T03:03:05;102229.22;;;13.39;78.81
64362;BME280;50685;53.346;-6.296;2022-07-05T03:05:30;102230.09;;;13.36;79.27
64362;BME280;50685;53.346;-6.296;2022-07-05T03:07:56;102222.09;;;13.30;79.12
64362;BME280;50685;53.346;-6.296;2022-07-05T03:10:21;102207.88;;;13.17;79.23
64362;BME280;50685;53.346;-6.296;2022-07-05T03:12:47;102199.00;;;13.13;79.69
64362;BME280;50685;53.346;-6.296;2022-07-05T03:15:12;102202.56;;;13.17;79.46
64362;BME280;50685;53.346;-6.296;2022-07-05T03:17:37;102219.44;;;13.19;79.57
64362;BME280;50685;53.346;-6.296;2022-07-05T03:20:03;102213.22;;;13.22;79.93
64362;BME280;50685;53.346;-6.296;2022-07-05T03:22:29;102228.28;;;13.26;79.81
64362;BME280;50685;53.346;-6.296;2022-07-05T03:24:55;102206.97;;;13.15;79.91
64362;BME280;50685;53.346;-6.296;2022-07-05T03:27:20;102223.84;;;13.31;79.61
64362;BME280;50685;53.346;-6.296;2022-07-05T03:29:45;102224.75;;;13.30;79.74
64362;BME280;50685;53.346;-6.296;2022-07-05T03:32:11;102222.06;;;13.33;79.58
64362;BME280;50685;53.346;-6.296;2022-07-05T03:34:36;102235.41;;;13.36;79.52
64362;BME280;50685;53.346;-6.296;2022-07-05T03:37:03;102224.75;;;13.31;79.64
64362;BME280;50685;53.346;-6.296;2022-07-05T03:39:29;102216.75;;;13.31;79.11
64362;BME280;50685;53.346;-6.296;2022-07-05T03:41:54;102206.09;;;13.27;79.84
64362;BME280;50685;53.346;-6.296;2022-07-05T03:44:20;102228.28;;;13.32;80.48
64362;BME280;50685;53.346;-6.296;2022-07-05T03:46:45;102239.88;;;13.39;80.54
64362;BME280;50685;53.346;-6.296;2022-07-05T03:49:12;102229.19;;;13.23;81.34
64362;BME280;50685;53.346;-6.296;2022-07-05T03:51:37;102217.66;;;13.20;81.04
64362;BME280;50685;53.346;-6.296;2022-07-05T03:54:03;102242.50;;;13.34;81.29
64362;BME280;50685;53.346;-6.296;2022-07-05T03:56:29;102235.41;;;13.27;81.19
64362;BME280;50685;53.346;-6.296;2022-07-05T03:58:54;102229.22;;;13.20;81.20
64362;BME280;50685;53.346;-6.296;2022-07-05T04:01:20;102230.97;;;13.26;81.63
64362;BME280;50685;53.346;-6.296;2022-07-05T04:03:46;102242.50;;;13.23;81.40
64362;BME280;50685;53.346;-6.296;2022-07-05T04:06:12;102233.66;;;13.23;81.94
64362;BME280;50685;53.346;-6.296;2022-07-05T04:08:38;102227.44;;;13.19;82.13
64362;BME280;50685;53.346;-6.296;2022-07-05T04:11:04;102224.75;;;13.14;82.42
64362;BME280;50685;53.346;-6.296;2022-07-05T04:13:29;102236.28;;;13.24;82.83
64362;BME280;50685;53.346;-6.296;2022-07-05T04:15:55;102224.75;;;13.22;82.73
64362;BME280;50685;53.346;-6.296;2022-07-05T04:18:21;102226.53;;;13.12;83.15
64362;BME280;50685;53.346;-6.296;2022-07-05T04:20:47;102210.53;;;13.17;83.16
64362;BME280;50685;53.346;-6.296;2022-07-05T04:23:13;102228.31;;;13.13;83.88
64362;BME280;50685;53.346;-6.296;2022-07-05T04:25:38;102247.84;;;13.23;83.65
64362;BME280;50685;53.346;-6.296;2022-07-05T04:28:04;102270.94;;;13.38;83.72
64362;BME280;50685;53.346;-6.296;2022-07-05T04:30:29;102251.41;;;13.24;84.32
64362;BME280;50685;53.346;-6.296;2022-07-05T04:32:55;102279.81;;;13.29;84.55
64362;BME280;50685;53.346;-6.296;2022-07-05T04:35:21;102273.59;;;13.30;84.79
64362;BME280;50685;53.346;-6.296;2022-07-05T04:37:47;102258.50;;;13.22;84.98
64362;BME280;50685;53.346;-6.296;2022-07-05T04:40:13;102248.72;;;13.10;85.17
64362;BME280;50685;53.346;-6.296;2022-07-05T04:42:39;102255.84;;;13.15;85.12
64362;BME280;50685;53.346;-6.296;2022-07-05T04:45:05;102261.19;;;13.26;84.88
64362;BME280;50685;53.346;-6.296;2022-07-05T04:47:30;102280.72;;;13.39;84.25
64362;BME280;50685;53.346;-6.296;2022-07-05T04:49:56;102262.94;;;13.30;84.29
64362;BME280;50685;53.346;-6.296;2022-07-05T04:52:23;102262.94;;;13.32;84.76
64362;BME280;50685;53.346;-6.296;2022-07-05T04:54:48;102263.84;;;13.26;85.10
64362;BME280;50685;53.346;-6.296;2022-07-05T04:57:14;102270.94;;;13.29;85.01
64362;BME280;50685;53.346;-6.296;2022-07-05T04:59:39;102279.81;;;13.32;85.44
64362;BME280;50685;53.346;-6.296;2022-07-05T05:02:05;102285.13;;;13.36;85.39
64362;BME280;50685;53.346;-6.296;2022-07-05T05:04:30;102271.81;;;13.25;85.48
64362;BME280;50685;53.346;-6.296;2022-07-05T05:06:56;102289.59;;;13.38;85.23
64362;BME280;50685;53.346;-6.296;2022-07-05T05:09:21;102286.94;;;13.33;86.19
64362;BME280;50685;53.346;-6.296;2022-07-05T05:11:47;102294.94;;;13.44;85.78
64362;BME280;50685;53.346;-6.296;2022-07-05T05:14:13;102303.81;;;13.42;86.20
64362;BME280;50685;53.346;-6.296;2022-07-05T05:16:39;102295.81;;;13.34;86.61
64362;BME280;50685;53.346;-6.296;2022-07-05T05:19:04;102294.06;;;13.38;86.48
64362;BME280;50685;53.346;-6.296;2022-07-05T05:21:30;102321.59;;;13.52;86.18
64362;BME280;50685;53.346;-6.296;2022-07-05T05:23:55;102310.91;;;13.44;86.14
64362;BME280;50685;53.346;-6.296;2022-07-05T05:26:21;102297.59;;;13.43;85.83
64362;BME280;50685;53.346;-6.296;2022-07-05T05:28:46;102315.34;;;13.58;85.07
64362;BME280;50685;53.346;-6.296;2022-07-05T05:31:12;102307.38;;;13.55;85.28
64362;BME280;50685;53.346;-6.296;2022-07-05T05:33:37;102323.34;;;13.69;84.94
64362;BME280;50685;53.346;-6.296;2022-07-05T05:36:03;102326.91;;;13.75;84.72
64362;BME280;50685;53.346;-6.296;2022-07-05T05:38:28;102342.88;;;13.85;84.49
64362;BME280;50685;53.346;-6.296;2022-07-05T05:40:54;102320.69;;;13.75;84.37
64362;BME280;50685;53.346;-6.296;2022-07-05T05:43:19;102323.34;;;13.75;84.65
64362;BME280;50685;53.346;-6.296;2022-07-05T05:45:45;102330.47;;;13.79;84.29
64362;BME280;50685;53.346;-6.296;2022-07-05T05:48:10;102349.13;;;13.91;84.19
64362;BME280;50685;53.346;-6.296;2022-07-05T05:50:37;102350.00;;;13.95;83.89
64362;BME280;50685;53.346;-6.296;2022-07-05T05:53:07;102348.22;;;13.95;83.39
64362;BME280;50685;53.346;-6.296;2022-07-05T05:55:32;102330.44;;;13.87;83.94
64362;BME280;50685;53.346;-6.296;2022-07-05T05:58:19;102350.84;;;14.03;83.27
64362;BME280;50685;53.346;-6.296;2022-07-05T06:00:49;102344.66;;;13.98;83.46
64362;BME280;50685;53.346;-6.296;2022-07-05T06:03:27;102342.00;;;13.95;83.07
64362;BME280;50685;53.346;-6.296;2022-07-05T06:05:53;102362.41;;;14.08;83.00
64362;BME280;50685;53.346;-6.296;2022-07-05T06:08:19;102384.59;;;14.24;82.79
64362;BME280;50685;53.346;-6.296;2022-07-05T06:10:44;102349.94;;;14.10;82.56
64362;BME280;50685;53.346;-6.296;2022-07-05T06:13:12;102361.50;;;14.17;82.73
64362;BME280;50685;53.346;-6.296;2022-07-05T06:15:39;102365.03;;;14.19;82.06
64362;BME280;50685;53.346;-6.296;2022-07-05T06:18:05;102369.50;;;14.20;82.16
64362;BME280;50685;53.346;-6.296;2022-07-05T06:20:33;102386.34;;;14.38;81.50
64362;BME280;50685;53.346;-6.296;2022-07-05T06:23:00;102385.47;;;14.40;80.83
64362;BME280;50685;53.346;-6.296;2022-07-05T06:25:26;102380.09;;;14.43;80.81
64362;BME280;50685;53.346;-6.296;2022-07-05T06:28:02;102400.53;;;14.52;80.25
64362;BME280;50685;53.346;-6.296;2022-07-05T06:30:29;102398.72;;;14.57;79.99
64362;BME280;50685;53.346;-6.296;2022-07-05T06:32:56;102390.78;;;14.53;79.56
64362;BME280;50685;53.346;-6.296;2022-07-05T06:35:22;102397.84;;;14.58;79.22
64362;BME280;50685;53.346;-6.296;2022-07-05T06:37:53;102394.31;;;14.50;78.93
64362;BME280;50685;53.346;-6.296;2022-07-05T06:40:23;102396.97;;;14.58;78.76
64362;BME280;50685;53.346;-6.296;2022-07-05T06:42:54;102395.19;;;14.58;78.34
64362;BME280;50685;53.346;-6.296;2022-07-05T06:45:20;102388.06;;;14.56;78.36
64362;BME280;50685;53.346;-6.296;2022-07-05T06:47:56;102388.09;;;14.54;77.96
64362;BME280;50685;53.346;-6.296;2022-07-05T06:50:22;102398.75;;;14.56;78.42
64362;BME280;50685;53.346;-6.296;2022-07-05T06:52:47;102409.41;;;14.62;78.05
64362;BME280;50685;53.346;-6.296;2022-07-05T06:55:13;102401.41;;;14.59;77.99
64362;BME280;50685;53.346;-6.296;2022-07-05T06:57:38;102404.06;;;14.57;78.21
64362;BME280;50685;53.346;-6.296;2022-07-05T07:00:05;102395.19;;;14.54;78.25
64362;BME280;50685;53.346;-6.296;2022-07-05T07:02:30;102417.44;;;14.67;78.13
64362;BME280;50685;53.346;-6.296;2022-07-05T07:04:56;102408.50;;;14.60;78.23
64362;BME280;50685;53.346;-6.296;2022-07-05T07:07:22;102412.09;;;14.56;78.50
64362;BME280;50685;53.346;-6.296;2022-07-05T07:10:05;102419.19;;;14.63;78.43
64362;BME280;50685;53.346;-6.296;2022-07-05T07:12:31;102424.53;;;14.71;78.09
64362;BME280;50685;53.346;-6.296;2022-07-05T07:14:57;102428.97;;;14.81;77.87
64362;BME280;50685;53.346;-6.296;2022-07-05T07:17:23;102426.28;;;14.80;77.55
64362;BME280;50685;53.346;-6.296;2022-07-05T07:19:49;102437.81;;;14.91;77.18
64362;BME280;50685;53.346;-6.296;2022-07-05T07:22:14;102424.44;;;14.94;76.97
64362;BME280;50685;53.346;-6.296;2022-07-05T07:24:40;102430.63;;;14.99;76.77
64362;BME280;50685;53.346;-6.296;2022-07-05T07:27:05;102420.88;;;14.98;76.33
64362;BME280;50685;53.346;-6.296;2022-07-05T07:29:36;102432.38;;;15.09;75.88
64362;BME280;50685;53.346;-6.296;2022-07-05T07:32:03;102418.13;;;15.09;75.57
64362;BME280;50685;53.346;-6.296;2022-07-05T07:34:29;102430.53;;;15.18;75.62
64362;BME280;50685;53.346;-6.296;2022-07-05T07:36:55;102406.53;;;15.15;75.19
64362;BME280;50685;53.346;-6.296;2022-07-05T07:39:22;102446.47;;;15.39;74.61
64362;BME280;50685;53.346;-6.296;2022-07-05T07:41:48;102446.41;;;15.47;74.31
64362;BME280;50685;53.346;-6.296;2022-07-05T07:44:13;102418.91;;;15.33;73.92
64362;BME280;50685;53.346;-6.296;2022-07-05T07:46:39;102419.75;;;15.38;74.33
64362;BME280;50685;53.346;-6.296;2022-07-05T07:49:05;102432.19;;;15.45;73.85
64362;BME280;50685;53.346;-6.296;2022-07-05T07:51:31;102435.72;;;15.49;73.94
64362;BME280;50685;53.346;-6.296;2022-07-05T07:53:57;102432.13;;;15.51;73.65
64362;BME280;50685;53.346;-6.296;2022-07-05T07:56:23;102429.38;;;15.62;73.63
64362;BME280;50685;53.346;-6.296;2022-07-05T07:58:48;102425.72;;;15.72;72.89
64362;BME280;50685;53.346;-6.296;2022-07-05T08:01:14;102430.16;;;15.75;72.88
64362;BME280;50685;53.346;-6.296;2022-07-05T08:03:42;102447.94;;;15.87;72.65
64362;BME280;50685;53.346;-6.296;2022-07-05T08:06:10;102444.28;;;15.97;71.81
64362;BME280;50685;53.346;-6.296;2022-07-05T08:08:37;102420.31;;;15.85;72.11
64362;BME280;50685;53.346;-6.296;2022-07-05T08:11:07;102441.53;;;16.03;71.46
64362;BME280;50685;53.346;-6.296;2022-07-05T08:13:34;102415.75;;;15.98;71.09
64362;BME280;50685;53.346;-6.296;2022-07-05T08:15:59;102431.66;;;16.12;71.01
64362;BME280;50685;53.346;-6.296;2022-07-05T08:18:25;102438.00;;;16.01;71.08
64362;BME280;50685;53.346;-6.296;2022-07-05T08:21:09;102446.88;;;16.05;71.68
64362;BME280;50685;53.346;-6.296;2022-07-05T08:23:53;102427.44;;;15.81;72.26
64362;BME280;50685;53.346;-6.296;2022-07-05T08:26:19;102449.50;;;16.10;71.25
64362;BME280;50685;53.346;-6.296;2022-07-05T08:28:44;102440.69;;;15.98;71.19
64362;BME280;50685;53.346;-6.296;2022-07-05T08:31:10;102469.13;;;16.12;70.69
64362;BME280;50685;53.346;-6.296;2022-07-05T08:33:36;102436.09;;;16.11;70.48
64362;BME280;50685;53.346;-6.296;2022-07-05T08:36:01;102447.69;;;16.16;70.03
64362;BME280;50685;53.346;-6.296;2022-07-05T08:38:27;102464.47;;;16.31;70.10
64362;BME280;50685;53.346;-6.296;2022-07-05T08:40:55;102456.50;;;16.28;69.64
64362;BME280;50685;53.346;-6.296;2022-07-05T08:43:23;102461.69;;;16.43;69.14
64362;BME280;50685;53.346;-6.296;2022-07-05T08:45:53;102469.66;;;16.51;68.92
64362;BME280;50685;53.346;-6.296;2022-07-05T08:48:19;102465.09;;;16.58;68.68
64362;BME280;50685;53.346;-6.296;2022-07-05T08:50:47;102464.25;;;16.52;68.53
64362;BME280;50685;53.346;-6.296;2022-07-05T08:53:18;102476.66;;;16.61;68.47
64362;BME280;50685;53.346;-6.296;2022-07-05T08:55:45;102474.88;;;16.63;68.42
64362;BME280;50685;53.346;-6.296;2022-07-05T08:58:11;102467.78;;;16.58;68.44
64362;BME280;50685;53.346;-6.296;2022-07-05T09:00:38;102460.63;;;16.60;68.32
64362;BME280;50685;53.346;-6.296;2022-07-05T09:03:05;102460.66;;;16.55;68.44
64362;BME280;50685;53.346;-6.296;2022-07-05T09:05:30;102461.59;;;16.51;68.18
64362;BME280;50685;53.346;-6.296;2022-07-05T09:07:59;102478.47;;;16.61;68.24
64362;BME280;50685;53.346;-6.296;2022-07-05T09:10:27;102459.75;;;16.58;68.46
64362;BME280;50685;53.346;-6.296;2022-07-05T09:12:54;102483.59;;;16.81;67.93
64362;BME280;50685;53.346;-6.296;2022-07-05T09:15:19;102465.72;;;16.83;67.50
64362;BME280;50685;53.346;-6.296;2022-07-05T09:17:45;102487.88;;;16.99;67.94
64362;BME280;50685;53.346;-6.296;2022-07-05T09:20:16;102482.47;;;17.02;68.34
64362;BME280;50685;53.346;-6.296;2022-07-05T09:22:53;102483.97;;;17.25;68.11
64362;BME280;50685;53.346;-6.296;2022-07-05T09:25:21;102457.06;;;17.31;67.46
64362;BME280;50685;53.346;-6.296;2022-07-05T09:28:02;102465.63;;;17.56;66.34
64362;BME280;50685;53.346;-6.296;2022-07-05T09:30:36;102456.78;;;17.53;65.08
64362;BME280;50685;53.346;-6.296;2022-07-05T09:33:05;102480.66;;;17.68;65.11
64362;BME280;50685;53.346;-6.296;2022-07-05T09:35:35;102491.94;;;17.90;64.34
64362;BME280;50685;53.346;-6.296;2022-07-05T09:38:02;102486.72;;;18.36;63.40
64362;BME280;50685;53.346;-6.296;2022-07-05T09:40:30;102483.69;;;18.56;62.16
64362;BME280;50685;53.346;-6.296;2022-07-05T09:43:16;102498.13;;;18.49;62.34
64362;BME280;50685;53.346;-6.296;2022-07-05T09:46:01;102490.91;;;18.51;62.74
64362;BME280;50685;53.346;-6.296;2022-07-05T09:48:33;102488.72;;;18.71;62.00
64362;BME280;50685;53.346;-6.296;2022-07-05T09:51:05;102494.78;;;18.83;61.06
64362;BME280;50685;53.346;-6.296;2022-07-05T09:53:45;102497.31;;;18.92;60.91
64362;BME280;50685;53.346;-6.296;2022-07-05T09:56:29;102496.41;;;18.90;60.81
64362;BME280;50685;53.346;-6.296;2022-07-05T09:58:55;102492.91;;;18.86;60.80
64362;BME280;50685;53.346;-6.296;2022-07-05T10:04:00;102509.28;;;18.74;61.10
64362;BME280;50685;53.346;-6.296;2022-07-05T10:06:32;102509.03;;;18.39;61.48
64362;BME280;50685;53.346;-6.296;2022-07-05T10:08:58;102493.59;;;18.52;61.40
64362;BME280;50685;53.346;-6.296;2022-07-05T10:11:24;102506.00;;;18.58;61.53
64362;BME280;50685;53.346;-6.296;2022-07-05T10:13:52;102478.16;;;18.63;60.86
64362;BME280;50685;53.346;-6.296;2022-07-05T10:16:20;102502.25;;;18.68;60.66
64362;BME280;50685;53.346;-6.296;2022-07-05T10:18:50;102494.38;;;18.57;60.74
64362;BME280;50685;53.346;-6.296;2022-07-05T10:21:17;102493.47;;;18.58;60.98
64362;BME280;50685;53.346;-6.296;2022-07-05T10:23:45;102497.88;;;18.62;61.14
64362;BME280;50685;53.346;-6.296;2022-07-05T10:26:15;102495.94;;;18.71;60.58
64362;BME280;50685;53.346;-6.296;2022-07-05T10:31:25;102494.22;;;18.65;61.10
64362;BME280;50685;53.346;-6.296;2022-07-05T10:33:52;102491.63;;;18.60;61.34
64362;BME280;50685;53.346;-6.296;2022-07-05T10:36:18;102483.94;;;18.40;61.79
64362;BME280;50685;53.346;-6.296;2022-07-05T10:38:45;102503.56;;;18.45;62.29
64362;BME280;50685;53.346;-6.296;2022-07-05T10:41:18;102501.97;;;18.34;62.27
64362;BME280;50685;53.346;-6.296;2022-07-05T10:43:45;102499.47;;;18.24;62.66
64362;BME280;50685;53.346;-6.296;2022-07-05T10:46:10;102511.28;;;18.12;63.00
64362;BME280;50685;53.346;-6.296;2022-07-05T10:48:36;102527.28;;;18.19;63.29
64362;BME280;50685;53.346;-6.296;2022-07-05T10:51:14;102520.34;;;18.07;63.69
64362;BME280;50685;53.346;-6.296;2022-07-05T11:03:48;102539.97;;;18.12;63.98
64362;BME280;50685;53.346;-6.296;2022-07-05T11:06:49;102517.72;;;18.04;63.95
64362;BME280;50685;53.346;-6.296;2022-07-05T11:09:19;102539.84;;;18.18;63.93
64362;BME280;50685;53.346;-6.296;2022-07-05T11:17:09;102528.53;;;17.97;64.42
64362;BME280;50685;53.346;-6.296;2022-07-05T11:19:32;102544.53;;;18.07;64.24
64362;BME280;50685;53.346;-6.296;2022-07-05T11:22:05;102545.28;;;18.13;63.99
64362;BME280;50685;53.346;-6.296;2022-07-05T11:24:35;102537.94;;;18.25;63.84
64362;BME280;50685;53.346;-6.296;2022-07-05T11:27:03;102555.44;;;18.49;62.90
64362;BME280;50685;53.346;-6.296;2022-07-05T11:29:46;102551.66;;;18.61;62.41
64362;BME280;50685;53.346;-6.296;2022-07-05T11:32:13;102552.56;;;18.60;62.40
64362;BME280;50685;53.346;-6.296;2022-07-05T11:34:40;102553.63;;;18.51;62.75
64362;BME280;50685;53.346;-6.296;2022-07-05T11:42:39;102566.63;;;18.23;63.62
64362;BME280;50685;53.346;-6.296;2022-07-05T11:45:10;102557.69;;;18.22;63.70
64362;BME280;50685;53.346;-6.296;2022-07-05T11:47:37;102556.91;;;18.16;63.35
64362;BME280;50685;53.346;-6.296;2022-07-05T11:50:03;102565.66;;;18.27;63.47
64362;BME280;50685;53.346;-6.296;2022-07-05T11:52:33;102540.44;;;18.36;62.98
64362;BME280;50685;53.346;-6.296;2022-07-05T11:55:04;102564.06;;;18.68;62.05
64362;BME280;50685;53.346;-6.296;2022-07-05T11:57:29;102551.19;;;18.86;61.41
64362;BME280;50685;53.346;-6.296;2022-07-05T11:59:55;102550.09;;;18.98;60.64
64362;BME280;50685;53.346;-6.296;2022-07-05T12:02:21;102556.19;;;19.07;60.67
64362;BME280;50685;53.346;-6.296;2022-07-05T12:04:51;102548.22;;;19.01;60.24
64362;BME280;50685;53.346;-6.296;2022-07-05T12:07:29;102553.56;;;19.03;59.91
64362;BME280;50685;53.346;-6.296;2022-07-05T12:09:55;102556.00;;;19.15;60.43
64362;BME280;50685;53.346;-6.296;2022-07-05T12:12:40;102562.25;;;19.17;59.97
64362;BME280;50685;53.346;-6.296;2022-07-05T12:15:10;102548.06;;;19.09;59.92
64362;BME280;50685;53.346;-6.296;2022-07-05T12:17:37;102565.03;;;19.11;59.91
64362;BME280;50685;53.346;-6.296;2022-07-05T12:20:04;102563.28;;;19.10;60.14
64362;BME280;50685;53.346;-6.296;2022-07-05T12:22:34;102579.19;;;19.21;60.26
64362;BME280;50685;53.346;-6.296;2022-07-05T12:25:03;102564.78;;;19.25;60.46
64362;BME280;50685;53.346;-6.296;2022-07-05T12:27:29;102571.75;;;19.34;59.67
64362;BME280;50685;53.346;-6.296;2022-07-05T12:29:56;102565.25;;;19.44;59.68
64362;BME280;50685;53.346;-6.296;2022-07-05T12:32:21;102568.16;;;19.35;59.31
64362;BME280;50685;53.346;-6.296;2022-07-05T12:34:47;102561.56;;;19.50;59.42
64362;BME280;50685;53.346;-6.296;2022-07-05T12:37:26;102558.53;;;19.65;58.14
64362;BME280;50685;53.346;-6.296;2022-07-05T12:40:21;102563.63;;;19.78;57.73
64362;BME280;50685;53.346;-6.296;2022-07-05T12:43:00;102585.75;;;19.94;57.78
64362;BME280;50685;53.346;-6.296;2022-07-05T12:45:25;102565.69;;;20.07;57.47
64362;BME280;50685;53.346;-6.296;2022-07-05T12:50:22;102547.47;;;20.51;54.80
64362;BME280;50685;53.346;-6.296;2022-07-05T12:53:12;102572.66;;;20.50;55.61
64362;BME280;50685;53.346;-6.296;2022-07-05T12:56:01;102577.84;;;20.58;55.90
64362;BME280;50685;53.346;-6.296;2022-07-05T12:58:52;102568.25;;;20.48;55.73
64362;BME280;50685;53.346;-6.296;2022-07-05T13:01:34;102584.38;;;20.49;55.68
64362;BME280;50685;53.346;-6.296;2022-07-05T13:04:10;102575.72;;;20.36;56.28
64362;BME280;50685;53.346;-6.296;2022-07-05T13:06:40;102561.06;;;20.12;56.02
64362;BME280;50685;53.346;-6.296;2022-07-05T13:09:05;102577.28;;;20.09;56.33
64362;BME280;50685;53.346;-6.296;2022-07-05T13:11:31;102589.25;;;20.33;56.00